首页
METAR-TAF:

METAR-TAF

机场 :

海地角, 海地

纬度: 19-43-59N, 经度: 72-11-41W, 海拔: 3米

当前天气观测

该预报发布于19分钟前的14:00 UTC
风速2节,风向多变
温度 27°C
湿度 70%
气压 1017 hPa
能見度: 9000
散云层高于2500英尺, 积雨云.
多云层高于6000英尺

METAR: MTCH 241400Z VRB02KT 9000 SCT025CB BKN060 27/21 Q1017 A3004 RMK:CB/SSW/SSE

时间: 09:19 (14:19 UTC)

预报

该预报发布于3小时和19分钟前的11:00 UTC
预报有效从24日的 12点(UTC)到 25日的 12点(UTC)
风速2节,风向多变
能見度: 9000
散云层高于2200英尺, 积雨云.
成为
从 24日的 19点(UTC)到 24日的 22点(UTC)
风速10节,风向
散云层高于2400英尺, 积雨云.
多云层高于3500英尺
几率 40% :
短暂存在
从 24日的 23点(UTC)到 25日的 05点(UTC)
能見度: 4000
散云层高于2200英尺, 积雨云.
阴天层高于4000英尺
雷暴, 雨
成为
从 25日的 06点(UTC)到 25日的 10点(UTC)
风速2节,风向多变
能見度: 9000
少量云层高于1800英尺

TAF: MTCH 241100Z 2412/2512 VRB02KT 9000 SCT022CB BECMG 2419/2422 08010KT SCT024CB BKN035 PROB40 TEMPO 2423/2505 4000 TSRA SCT022CB OVC040 BECMG 2506/2510 VRB02KT 9000 NSW FEW018

超过4000个机场的气象观测和天气预报(METAR&TAF报告)。

可查询的气象台以黄色和红色小点在地图上表示。

将鼠标移到小点上方,可查看气象台名称。

然后点击查看天气观测和预报。

如需切换地图:点击带黑十字的绿色按钮放大地图;点击带横线的绿色按钮缩小地图;或者点击绿色箭头查看邻近地区的地图。


METAR-TAF: